createdAt,value
2023-01-26T01:04:54.104Z,27.26
2023-01-26T01:05:54.054Z,29.02
2023-01-26T01:06:54.015Z,26.76
2023-01-26T01:07:53.975Z,25.04
2023-01-26T01:08:53.938Z,27.32
2023-01-26T01:09:53.905Z,27.10
2023-01-26T01:10:53.853Z,25.91
2023-01-26T01:11:53.830Z,26.17
2023-01-26T01:12:53.758Z,26.58
2023-01-26T01:13:53.741Z,26.83
2023-01-26T01:14:53.692Z,26.94
2023-01-26T01:15:53.668Z,27.95
2023-01-26T01:16:53.593Z,26.13
2023-01-26T01:17:53.559Z,26.25
2023-01-26T01:18:53.527Z,26.33
2023-01-26T01:19:53.494Z,26.65
2023-01-26T01:20:53.453Z,28.42
2023-01-26T01:21:53.413Z,27.20
2023-01-26T01:22:53.370Z,26.33
2023-01-26T01:23:53.384Z,25.63
2023-01-26T01:24:53.305Z,27.80
2023-01-26T01:25:53.272Z,28.03
2023-01-26T01:26:53.251Z,27.49
2023-01-26T01:27:53.197Z,27.33
2023-01-26T01:28:53.162Z,28.52
2023-01-26T01:29:53.135Z,26.82
2023-01-26T01:30:53.112Z,29.21
2023-01-26T01:31:53.118Z,28.60
2023-01-26T01:32:53.030Z,26.86
2023-01-26T01:33:53.002Z,26.63
2023-01-26T01:34:52.961Z,26.58
2023-01-26T01:35:52.912Z,27.56
2023-01-26T01:36:52.880Z,27.99
2023-01-26T01:37:52.840Z,27.20
2023-01-26T01:38:52.803Z,27.20
2023-01-26T01:39:52.774Z,28.02
2023-01-26T01:40:52.731Z,27.35
2023-01-26T01:41:52.715Z,28.96
2023-01-26T01:42:52.650Z,25.90
2023-01-26T01:43:52.603Z,28.47
2023-01-26T01:44:52.556Z,27.81
2023-01-26T01:45:52.519Z,27.67
2023-01-26T01:46:52.527Z,28.72
2023-01-26T01:47:52.447Z,26.62
2023-01-26T01:48:52.388Z,28.53
2023-01-26T01:49:52.351Z,28.65
2023-01-26T01:50:52.317Z,27.57
2023-01-26T01:51:52.290Z,27.80
2023-01-26T01:52:52.248Z,26.83
2023-01-26T01:53:52.217Z,27.57
2023-01-26T01:54:52.171Z,27.81
2023-01-26T01:55:52.127Z,27.76
2023-01-26T01:56:52.071Z,27.37
2023-01-26T01:57:52.041Z,28.70
2023-01-26T01:58:51.993Z,29.84
2023-01-26T01:59:51.953Z,28.07
2023-01-26T02:00:51.928Z,27.59
2023-01-26T02:01:51.954Z,26.37
2023-01-26T02:02:51.818Z,28.67
2023-01-26T02:03:51.787Z,28.23
2023-01-26T02:04:51.746Z,28.94
2023-01-26T02:05:51.700Z,27.83
2023-01-26T02:06:51.662Z,28.01
2023-01-26T02:07:51.626Z,28.08
2023-01-26T02:08:51.584Z,28.16
2023-01-26T02:09:51.571Z,28.65
2023-01-26T02:10:51.521Z,28.80
2023-01-26T02:11:51.485Z,29.66
2023-01-26T02:12:51.437Z,28.02
2023-01-26T02:13:51.406Z,30.47
2023-01-26T02:14:51.389Z,27.60
2023-01-26T02:15:51.365Z,26.69
2023-01-26T02:16:51.304Z,26.80
2023-01-26T02:17:51.266Z,28.85
2023-01-26T02:18:51.225Z,26.85
2023-01-26T02:19:51.199Z,29.73
2023-01-26T02:20:51.155Z,27.58
2023-01-26T02:21:51.103Z,28.61
2023-01-26T02:22:51.057Z,27.20
2023-01-26T02:23:51.104Z,28.16
2023-01-26T02:24:50.980Z,28.30
2023-01-26T02:25:50.943Z,27.20
2023-01-26T02:26:50.904Z,29.20
2023-01-26T02:27:50.876Z,27.84
2023-01-26T02:28:50.819Z,26.43
2023-01-26T02:29:50.786Z,29.31
2023-01-26T02:30:50.755Z,29.43
2023-01-26T02:31:50.804Z,27.94
2023-01-26T02:32:50.665Z,29.43
2023-01-26T02:33:50.644Z,29.63
2023-01-26T02:34:50.595Z,30.73
2023-01-26T02:35:50.547Z,30.62
2023-01-26T02:36:50.510Z,28.83
2023-01-26T02:37:50.471Z,27.63
2023-01-26T02:38:50.437Z,27.79
2023-01-26T02:39:50.406Z,27.78
2023-01-26T02:40:50.418Z,28.19
2023-01-26T02:41:50.332Z,27.83
2023-01-26T02:42:50.290Z,26.45
2023-01-26T02:43:50.251Z,26.10
2023-01-26T02:44:50.221Z,28.43
2023-01-26T02:45:50.185Z,27.48
2023-01-26T02:46:50.159Z,27.82
2023-01-26T02:47:50.174Z,30.47
2023-01-26T02:48:50.107Z,29.54
2023-01-26T02:49:50.047Z,26.14
2023-01-26T02:50:50.016Z,26.27
2023-01-26T02:51:49.994Z,26.48
2023-01-26T02:52:49.938Z,28.86
2023-01-26T02:53:49.923Z,29.02
2023-01-26T02:54:49.888Z,28.93
2023-01-26T02:55:49.880Z,29.03
2023-01-26T02:56:49.791Z,27.68
2023-01-26T02:57:49.748Z,28.00
2023-01-26T02:58:49.726Z,27.64
2023-01-26T02:59:49.707Z,25.10
2023-01-26T03:00:49.718Z,26.91
2023-01-26T03:01:49.671Z,27.09
2023-01-26T03:02:49.614Z,27.31
2023-01-26T03:03:50.196Z,27.79
2023-01-26T03:04:49.500Z,27.27
2023-01-26T03:05:49.508Z,27.48
2023-01-26T04:10:47.162Z,27.71
2023-01-26T04:34:46.277Z,25.82
2023-01-26T04:35:46.240Z,27.64
2023-01-26T04:36:46.215Z,30.20
2023-01-26T04:37:46.171Z,27.96
2023-01-26T04:38:46.131Z,27.35
2023-01-26T04:39:46.090Z,29.40
2023-01-26T04:40:46.042Z,31.61
2023-01-26T04:41:45.996Z,27.65
2023-01-26T04:42:45.964Z,29.30
2023-01-26T04:43:45.937Z,26.50
2023-01-26T04:44:45.888Z,27.53
2023-01-26T04:45:45.857Z,27.27
2023-01-26T04:46:45.814Z,27.33
2023-01-26T04:47:45.770Z,27.50
2023-01-26T04:48:45.750Z,26.91
2023-01-26T04:49:45.700Z,28.74
2023-01-26T04:50:45.658Z,27.64
2023-01-26T04:51:45.619Z,29.09
2023-01-26T04:52:45.587Z,28.93
2023-01-26T04:53:45.542Z,26.78
2023-01-26T04:54:45.517Z,28.46
2023-01-26T04:55:45.467Z,28.05
2023-01-26T04:56:45.431Z,31.29
2023-01-26T04:57:45.405Z,28.87
2023-01-26T04:58:45.361Z,25.00
2023-01-26T04:59:45.319Z,30.10
2023-01-26T05:00:45.448Z,30.26
2023-01-26T05:01:45.243Z,29.93
2023-01-26T05:02:45.212Z,30.30
2023-01-26T05:03:45.163Z,29.09
2023-01-26T05:04:45.126Z,27.90
2023-01-26T05:05:45.102Z,27.96
2023-01-26T05:06:45.064Z,29.38
2023-01-26T05:07:45.028Z,27.91
2023-01-26T05:08:44.999Z,27.99
2023-01-26T05:09:44.949Z,26.80
2023-01-26T05:10:44.927Z,27.51
2023-01-26T05:11:44.887Z,27.88
2023-01-26T05:12:44.865Z,29.59
2023-01-26T05:13:44.813Z,27.61
2023-01-26T05:14:44.786Z,26.13
2023-01-26T05:15:44.756Z,26.96
2023-01-26T05:16:44.750Z,27.62
2023-01-26T05:17:44.674Z,25.78
2023-01-26T05:18:44.639Z,26.63
2023-01-26T05:19:44.609Z,29.73
2023-01-26T05:20:44.559Z,28.13
2023-01-26T05:21:44.526Z,28.72
2023-01-26T05:22:44.492Z,28.84
2023-01-26T05:23:44.450Z,25.82
2023-01-26T05:24:44.415Z,27.85
2023-01-26T05:25:44.374Z,28.42
2023-01-26T05:26:44.338Z,26.49
2023-01-26T05:27:44.315Z,27.92
2023-01-26T05:28:44.349Z,25.00
2023-01-26T05:29:44.236Z,28.64
2023-01-26T05:30:44.197Z,29.21
2023-01-26T05:31:44.184Z,30.55
2023-01-26T05:32:44.115Z,30.58
2023-01-26T05:33:44.087Z,26.66
2023-01-26T05:34:44.069Z,28.18
2023-01-26T05:35:44.016Z,28.53
2023-01-26T05:36:43.969Z,28.38
2023-01-26T05:37:43.931Z,29.32
2023-01-26T05:38:43.886Z,28.79
2023-01-26T05:39:43.842Z,28.29
2023-01-26T05:40:43.806Z,29.53
2023-01-26T05:41:43.761Z,29.17
2023-01-26T05:42:43.726Z,27.54
2023-01-26T05:43:43.683Z,26.37
2023-01-26T05:44:43.649Z,27.88
2023-01-26T05:45:43.710Z,27.14
2023-01-26T05:46:43.581Z,26.70
2023-01-26T05:47:43.530Z,29.87
2023-01-26T05:48:43.519Z,25.79
2023-01-26T05:49:43.459Z,26.68
2023-01-26T05:50:43.420Z,29.52
2023-01-26T05:51:43.375Z,27.20
2023-01-26T05:52:43.342Z,27.46
2023-01-26T05:53:43.312Z,29.01
2023-01-26T05:54:43.263Z,26.19
2023-01-26T05:55:43.229Z,26.31
2023-01-26T05:56:43.211Z,25.80
2023-01-26T05:57:43.164Z,27.84
2023-01-26T05:58:43.120Z,26.91
2023-01-26T05:59:43.084Z,27.28
2023-01-26T06:00:43.053Z,28.87
2023-01-26T06:01:43.015Z,29.18
2023-01-26T06:02:42.993Z,27.60
2023-01-26T06:03:42.954Z,29.80
2023-01-26T06:04:42.911Z,26.06
2023-01-26T06:05:42.869Z,25.69
2023-01-26T06:06:42.843Z,27.45
2023-01-26T06:07:42.812Z,26.29
2023-01-26T06:08:42.786Z,28.02
2023-01-26T06:09:42.752Z,30.03
2023-01-26T06:10:42.727Z,26.70
2023-01-26T06:11:42.695Z,29.18
2023-01-26T06:12:42.653Z,28.97
2023-01-26T06:13:42.627Z,27.78
2023-01-26T06:14:42.585Z,29.31
2023-01-26T06:15:42.554Z,29.94
2023-01-26T06:16:42.568Z,27.62
2023-01-26T06:17:42.500Z,26.75
2023-01-26T06:18:42.485Z,27.73
2023-01-26T06:19:42.431Z,26.52
2023-01-26T06:20:44.289Z,31.81
2023-01-26T06:21:42.369Z,28.43
2023-01-26T06:22:42.344Z,29.92
2023-01-26T06:23:42.325Z,28.94
2023-01-26T06:24:42.298Z,27.05
2023-01-26T06:25:42.259Z,27.31
2023-01-26T06:26:42.245Z,27.53
2023-01-26T06:27:42.599Z,27.56
2023-01-26T06:28:42.179Z,29.34
2023-01-26T06:29:42.141Z,28.31
2023-01-26T06:30:42.210Z,31.77
2023-01-26T06:31:42.152Z,27.97
2023-01-26T06:32:42.075Z,27.42
2023-01-26T06:33:42.072Z,27.16
2023-01-26T06:34:42.032Z,29.14
2023-01-26T06:35:42.004Z,27.50
2023-01-26T06:36:41.966Z,30.01
2023-01-26T06:37:42.007Z,31.73
2023-01-26T06:38:41.896Z,30.04
2023-01-26T06:39:41.905Z,25.58
2023-01-26T06:40:41.836Z,32.02
2023-01-26T06:41:41.801Z,28.79
2023-01-26T06:42:41.779Z,34.77
2023-01-26T06:43:41.752Z,38.87
2023-01-26T06:44:41.724Z,38.53
2023-01-26T06:45:41.700Z,45.31
2023-01-26T06:46:41.661Z,45.73
2023-01-26T06:47:41.624Z,46.77
2023-01-26T06:48:41.578Z,49.53
2023-01-26T06:49:41.550Z,58.12
2023-01-26T06:50:41.517Z,61.32
2023-01-26T06:51:41.483Z,64.56
2023-01-26T06:52:42.275Z,69.91
2023-01-26T06:53:41.382Z,74.85
2023-01-26T06:54:41.347Z,80.72
2023-01-26T06:55:41.295Z,86.77
2023-01-26T06:56:41.262Z,90.37
2023-01-26T06:57:41.233Z,94.39
2023-01-26T06:58:41.177Z,93.10
2023-01-26T06:59:41.164Z,97.01
2023-01-26T07:00:41.105Z,101.60
2023-01-26T07:01:41.070Z,103.85
2023-01-26T07:02:41.076Z,106.66
2023-01-26T07:03:41.000Z,111.35
2023-01-26T07:04:40.951Z,112.33
2023-01-26T07:05:40.911Z,121.36
2023-01-26T07:06:40.891Z,120.56
2023-01-26T07:07:40.832Z,121.26
2023-01-26T07:08:40.777Z,126.14
2023-01-26T07:09:40.744Z,131.67
2023-01-26T07:10:40.706Z,131.12
2023-01-26T07:11:40.658Z,137.66
2023-01-26T07:12:40.629Z,134.74
2023-01-26T07:13:40.579Z,141.83
2023-01-26T07:14:40.552Z,148.74
2023-01-26T07:15:40.511Z,146.99
2023-01-26T07:16:40.547Z,153.11
2023-01-26T07:17:40.461Z,152.25
2023-01-26T07:18:40.427Z,152.56
2023-01-26T07:19:40.367Z,155.10
2023-01-26T07:20:40.277Z,152.22
2023-01-26T07:21:40.257Z,152.72
2023-01-26T07:22:40.197Z,153.33
2023-01-26T07:23:40.156Z,154.39
2023-01-26T07:24:40.104Z,157.29
2023-01-26T07:25:40.069Z,162.25
2023-01-26T07:26:40.024Z,165.71
2023-01-26T07:27:39.976Z,169.64
2023-01-26T07:28:40.448Z,172.24
2023-01-26T07:29:39.908Z,181.82
2023-01-26T07:30:39.929Z,180.43
2023-01-26T07:31:39.865Z,186.94
2023-01-26T07:32:39.779Z,185.96
2023-01-26T07:33:39.726Z,192.45
2023-01-26T07:34:39.672Z,188.51
2023-01-26T07:35:39.645Z,196.90
2023-01-26T07:36:39.599Z,194.97
2023-01-26T07:37:39.580Z,194.38
2023-01-26T07:38:39.507Z,199.22
2023-01-26T07:39:39.471Z,202.88
2023-01-26T07:40:39.426Z,205.75
2023-01-26T07:41:39.381Z,209.87
2023-01-26T07:42:39.331Z,201.86
2023-01-26T07:43:39.368Z,161.76
2023-01-26T07:44:39.231Z,170.87
2023-01-26T07:45:39.180Z,67.80
2023-01-26T07:46:39.169Z,125.37
2023-01-26T07:47:39.133Z,181.87
2023-01-26T07:48:39.098Z,166.26
2023-01-26T07:49:39.071Z,137.76
2023-01-26T07:50:39.028Z,121.48
2023-01-26T07:51:38.987Z,122.69
2023-01-26T07:52:38.941Z,123.08
2023-01-26T07:53:38.904Z,123.80
2023-01-26T07:54:38.866Z,124.66
2023-01-26T07:55:38.830Z,125.03
2023-01-26T07:56:38.782Z,122.26
2023-01-26T07:57:38.743Z,126.91
2023-01-26T07:58:38.701Z,130.19
2023-01-26T07:59:38.666Z,122.96
2023-01-26T08:00:38.653Z,127.15
2023-01-26T08:01:38.578Z,123.25
2023-01-26T08:02:38.600Z,124.72
2023-01-26T08:03:38.504Z,123.30
2023-01-26T08:04:38.446Z,122.89
2023-01-26T08:05:38.433Z,123.12
2023-01-26T08:06:38.348Z,117.61
2023-01-26T08:07:38.296Z,122.86
2023-01-26T08:08:38.247Z,117.19
2023-01-26T08:09:38.226Z,114.00
2023-01-26T08:10:38.196Z,112.66
2023-01-26T08:11:38.132Z,113.53
2023-01-26T08:12:40.843Z,114.96
2023-01-26T08:13:38.031Z,119.22
2023-01-26T08:14:46.328Z,112.72
2023-01-26T08:15:38.946Z,113.24
2023-01-26T08:16:37.962Z,113.03
2023-01-26T08:17:37.837Z,113.55
2023-01-26T08:18:37.805Z,115.60
2023-01-26T08:19:37.757Z,113.12
2023-01-26T08:20:37.703Z,113.41
2023-01-26T08:21:37.719Z,112.74
2023-01-26T08:22:37.602Z,105.99
2023-01-26T08:23:37.563Z,111.15
2023-01-26T08:24:37.524Z,108.94
2023-01-26T08:25:37.474Z,108.96
2023-01-26T08:26:37.419Z,109.49
2023-01-26T08:27:37.387Z,105.65
2023-01-26T08:28:37.338Z,111.38
2023-01-26T08:29:37.355Z,105.69
2023-01-26T08:30:37.260Z,105.99
2023-01-26T08:31:37.241Z,106.57
2023-01-26T08:32:37.161Z,101.74
2023-01-26T08:33:37.113Z,106.19
2023-01-26T08:34:37.057Z,98.08
2023-01-26T08:35:37.015Z,102.56
2023-01-26T08:36:36.972Z,101.41
2023-01-26T08:37:36.925Z,96.13
2023-01-26T08:38:36.882Z,100.22
2023-01-26T08:39:36.841Z,98.72
2023-01-26T08:40:36.784Z,103.26
2023-01-26T08:41:36.751Z,103.46
2023-01-26T08:42:36.697Z,103.59
2023-01-26T08:43:36.668Z,104.45
2023-01-26T08:44:36.607Z,105.52
2023-01-26T08:45:36.586Z,101.13
2023-01-26T08:46:36.498Z,103.75
2023-01-26T08:47:36.453Z,105.12
2023-01-26T08:48:36.411Z,104.02
2023-01-26T08:49:36.371Z,94.02
2023-01-26T08:50:36.320Z,67.38
2023-01-26T08:51:36.274Z,74.06
2023-01-26T08:52:36.249Z,67.52
2023-01-26T08:53:36.199Z,38.77
2023-01-26T08:54:36.180Z,25.00
2023-01-26T08:55:36.254Z,38.41
2023-01-26T08:56:36.092Z,55.80
2023-01-26T08:57:36.028Z,69.90
2023-01-26T08:58:35.983Z,62.60
2023-01-26T08:59:36.005Z,61.86
2023-01-26T09:00:35.948Z,58.53
2023-01-26T09:01:36.426Z,56.48
2023-01-26T09:02:35.980Z,52.25
2023-01-26T09:03:35.832Z,49.27
2023-01-26T09:04:35.773Z,48.19
2023-01-26T09:05:35.736Z,44.00
2023-01-26T09:06:35.701Z,43.01
2023-01-26T09:07:35.654Z,44.69
2023-01-26T09:08:35.596Z,45.80
2023-01-26T09:09:35.562Z,42.49
2023-01-26T09:10:35.523Z,39.34
2023-01-26T09:11:35.490Z,41.15
2023-01-26T09:12:35.421Z,38.57
2023-01-26T09:13:35.379Z,38.91
2023-01-26T09:14:35.347Z,39.16
2023-01-26T09:15:35.292Z,38.51
2023-01-26T09:16:35.274Z,40.18
2023-01-26T09:17:35.185Z,38.98
2023-01-26T09:18:35.163Z,42.29
2023-01-26T09:19:35.090Z,42.10
2023-01-26T09:20:35.036Z,38.01
2023-01-26T09:21:35.021Z,36.87
2023-01-26T09:22:34.955Z,35.12
2023-01-26T09:23:34.924Z,33.86
2023-01-26T09:24:34.856Z,35.74
2023-01-26T09:25:34.826Z,35.97
2023-01-26T09:26:34.777Z,36.38
2023-01-26T09:27:34.728Z,34.70
2023-01-26T09:28:34.681Z,31.54
2023-01-26T09:29:34.629Z,31.18
2023-01-26T09:30:34.814Z,32.70
2023-01-26T09:31:34.681Z,27.81
2023-01-26T09:32:34.533Z,29.66
2023-01-26T09:33:34.480Z,35.59
2023-01-26T09:34:34.455Z,40.50
2023-01-26T09:35:34.383Z,45.58
2023-01-26T09:36:34.373Z,45.18
2023-01-26T09:37:34.275Z,48.16
2023-01-26T09:38:34.251Z,51.81
2023-01-26T09:39:34.207Z,0.00
2023-01-26T09:40:34.174Z,0.00
2023-01-26T09:41:34.126Z,84.81
2023-01-26T09:42:34.051Z,96.84
2023-01-26T09:43:33.998Z,75.46
2023-01-26T09:44:33.975Z,47.69
2023-01-26T09:45:33.900Z,53.64
2023-01-26T09:46:33.875Z,62.82
2023-01-26T09:47:33.850Z,63.73
2023-01-26T09:48:33.778Z,66.79
2023-01-26T09:49:33.739Z,65.51
2023-01-26T09:50:33.706Z,64.89
2023-01-26T09:51:33.634Z,72.10
2023-01-26T09:52:33.627Z,61.54
2023-01-26T09:53:33.555Z,70.79
2023-01-26T09:54:33.523Z,0.00
2023-01-26T09:55:33.493Z,0.00
2023-01-26T09:56:33.446Z,1.41
2023-01-26T09:57:33.859Z,6.52
2023-01-26T09:58:33.422Z,25.33
2023-01-26T09:59:33.374Z,43.47
2023-01-26T10:00:33.325Z,57.20
2023-01-26T10:01:33.363Z,2.23
2023-01-26T10:02:33.306Z,8.36
2023-01-26T10:03:33.224Z,21.51
2023-01-26T10:04:33.174Z,50.24
2023-01-26T10:05:33.148Z,86.83
2023-01-26T10:06:33.098Z,98.93
2023-01-26T10:07:33.083Z,101.76
2023-01-26T10:08:33.019Z,105.39
2023-01-26T10:09:32.980Z,110.52
2023-01-26T10:10:32.945Z,123.54
2023-01-26T10:11:32.892Z,141.72
2023-01-26T10:12:32.848Z,148.59
2023-01-26T10:13:32.838Z,140.10
2023-01-26T10:14:32.769Z,142.45
2023-01-26T10:15:32.767Z,141.76
2023-01-26T10:16:32.689Z,142.59
2023-01-26T10:17:32.663Z,146.49
2023-01-26T10:18:32.629Z,146.62
2023-01-26T10:19:32.570Z,146.84
2023-01-26T10:20:32.508Z,148.19
2023-01-26T10:21:32.475Z,149.32
2023-01-26T10:22:32.429Z,149.07
2023-01-26T10:23:32.393Z,149.58
2023-01-26T10:24:32.339Z,149.46
2023-01-26T10:25:32.291Z,150.27
2023-01-26T10:26:32.255Z,151.24
2023-01-26T10:27:32.227Z,153.68
2023-01-26T10:28:32.160Z,151.98
2023-01-26T10:29:32.126Z,153.95
2023-01-26T10:30:32.093Z,152.34
2023-01-26T10:31:32.019Z,153.40
2023-01-26T10:32:31.979Z,157.10
2023-01-26T10:33:31.916Z,154.12
2023-01-26T10:34:31.866Z,156.87
2023-01-26T10:35:31.816Z,163.73
2023-01-26T10:36:31.820Z,161.98
2023-01-26T10:37:31.742Z,162.40
2023-01-26T10:38:31.687Z,166.57
2023-01-26T10:39:31.632Z,168.30
2023-01-26T10:40:31.572Z,168.82
2023-01-26T10:41:31.534Z,170.37
2023-01-26T10:42:32.404Z,173.28
2023-01-26T10:43:31.445Z,172.14
2023-01-26T10:44:31.390Z,170.89
2023-01-26T10:45:31.371Z,174.34
2023-01-26T10:46:31.343Z,175.79
2023-01-26T10:47:31.245Z,176.65
2023-01-26T10:48:31.217Z,177.31
2023-01-26T10:49:31.145Z,175.79
2023-01-26T10:50:31.109Z,174.35
2023-01-26T10:51:31.048Z,173.06
2023-01-26T10:52:31.017Z,172.95
2023-01-26T10:53:31.005Z,173.09
2023-01-26T10:54:30.910Z,172.50
2023-01-26T10:55:30.874Z,170.37
2023-01-26T10:56:30.825Z,168.28
2023-01-26T10:57:30.753Z,165.94
2023-01-26T10:58:32.489Z,171.94
2023-01-26T10:59:30.674Z,167.22
2023-01-26T11:00:30.614Z,164.47
2023-01-26T11:01:30.599Z,162.67
2023-01-26T11:02:30.565Z,161.62
2023-01-26T11:03:30.462Z,160.63
2023-01-26T11:04:30.419Z,159.90
2023-01-26T11:05:30.379Z,158.30
2023-01-26T11:06:30.350Z,157.73
2023-01-26T11:07:30.309Z,155.84
2023-01-26T11:08:30.251Z,155.02
2023-01-26T11:09:30.210Z,155.21
2023-01-26T11:10:30.132Z,156.50
2023-01-26T11:11:30.135Z,157.71
2023-01-26T11:12:30.048Z,164.68
2023-01-26T11:13:29.992Z,183.87
2023-01-26T11:14:29.957Z,184.74
2023-01-26T11:15:29.931Z,187.10
2023-01-26T11:16:29.987Z,191.26
2023-01-26T11:17:29.800Z,198.98
2023-01-26T11:18:29.806Z,205.86
2023-01-26T11:19:29.726Z,208.22
2023-01-26T11:20:29.683Z,207.59
2023-01-26T11:21:29.617Z,209.99
2023-01-26T11:22:29.609Z,205.67
2023-01-26T11:23:29.538Z,206.88
2023-01-26T11:55:27.914Z,184.07
2023-01-26T11:56:27.851Z,184.18
2023-01-26T11:57:27.865Z,182.36
2023-01-26T11:58:27.788Z,184.68
2023-01-26T11:59:27.719Z,184.14
2023-01-26T12:00:30.775Z,183.63
2023-01-26T12:01:27.590Z,184.58
2023-01-26T12:02:28.089Z,185.20
2023-01-26T12:03:27.544Z,182.92
2023-01-26T12:04:27.443Z,181.60
2023-01-26T12:05:27.376Z,178.09
2023-01-26T12:06:27.337Z,180.24
2023-01-26T12:07:27.277Z,180.59
2023-01-26T12:08:27.313Z,178.76
2023-01-26T12:09:27.209Z,178.77
2023-01-26T12:10:27.145Z,177.45
2023-01-26T12:11:27.078Z,177.29
2023-01-26T12:12:27.048Z,177.55
2023-01-26T12:13:27.003Z,178.88
2023-01-26T12:14:26.957Z,179.19
2023-01-26T12:15:26.885Z,174.46
2023-01-26T12:16:26.888Z,176.83
2023-01-26T12:19:26.682Z,174.42
2023-01-26T12:25:26.375Z,173.12
2023-01-26T13:00:24.801Z,157.91
2023-01-26T14:34:21.103Z,128.57
2023-01-26T14:35:21.063Z,127.83
2023-01-26T14:36:21.033Z,130.36
2023-01-26T14:37:20.994Z,125.34
2023-01-26T14:38:20.959Z,129.54
2023-01-26T14:39:20.954Z,130.06
2023-01-26T14:40:20.881Z,128.61
2023-01-26T14:41:20.840Z,130.11
2023-01-26T14:42:20.806Z,127.19
2023-01-26T14:43:20.791Z,126.43
2023-01-26T14:44:20.737Z,127.51
2023-01-26T14:45:20.693Z,126.73
2023-01-26T14:46:20.692Z,125.87
2023-01-26T14:47:20.616Z,123.82
2023-01-26T14:48:20.581Z,122.72
2023-01-26T14:49:20.537Z,126.78
2023-01-26T14:50:20.500Z,125.75
2023-01-26T14:51:20.484Z,123.42
2023-01-26T14:52:20.411Z,125.42
2023-01-26T14:53:20.432Z,124.39
2023-01-26T14:54:20.319Z,124.23
2023-01-26T14:55:20.269Z,125.17
2023-01-26T14:56:20.242Z,125.89
2023-01-26T14:57:20.181Z,125.65
2023-01-26T14:58:20.142Z,122.14
2023-01-26T14:59:20.104Z,123.64
2023-01-26T15:00:20.061Z,124.31
2023-01-26T15:01:20.016Z,123.53
2023-01-26T15:02:20.074Z,121.79
2023-01-26T15:03:19.922Z,118.41
2023-01-26T15:04:19.917Z,119.15
2023-01-26T15:05:19.847Z,122.91
2023-01-26T15:06:19.823Z,121.06
2023-01-26T15:07:21.460Z,121.61
2023-01-26T15:08:19.739Z,119.71
2023-01-26T15:09:19.680Z,118.07
2023-01-26T15:10:19.634Z,117.79
2023-01-26T15:11:19.592Z,120.49
2023-01-26T15:12:19.561Z,118.29
2023-01-26T15:13:19.513Z,120.88
2023-01-26T15:14:21.158Z,122.04
2023-01-26T15:57:05.883Z,25.00
2023-01-26T15:58:05.885Z,25.00
2023-01-26T15:59:05.881Z,25.00
2023-01-26T16:00:05.888Z,25.00
2023-01-26T16:24:41.459Z,27.00
2023-01-26T16:28:41.347Z,28.75
2023-01-26T16:34:41.223Z,30.92
2023-01-26T21:45:33.753Z,29.65
2023-01-26T21:46:33.627Z,29.35
2023-01-26T21:47:33.599Z,29.65
2023-01-26T21:48:33.592Z,27.39
